Time;durP1;ratioP1;P1;durP2;ratioP2;P2;SDS_P1;SDS_P2;PMS_P1;PMS_P2;Temp;Humidity;BMP_temperature;BMP_pressure;BME280_temperature;BME280_humidity;BME280_pressure;Samples;Min_cycle;Max_cycle;Signal;HPM_P1;HPM_P2
2023/04/15 00:02:18;;;;;;;3.40;3.17;;;;;;;;;;5035591;28;20049;-53
2023/04/15 00:04:45;;;;;;;4.13;3.45;;;;;;;;;;5035581;28;20444;-53
2023/04/15 00:07:10;;;;;;;3.95;3.65;;;;;;;;;;5035593;28;20037;-53
2023/04/15 00:09:35;;;;;;;3.55;3.25;;;;;;;;;;5035499;28;20032;-53
2023/04/15 00:12:01;;;;;;;3.55;3.30;;;;;;;;;;5035003;28;20455;-53
2023/04/15 00:14:27;;;;;;;5.35;3.75;;;;;;;;;;5035273;28;20459;-53
2023/04/15 00:16:54;;;;;;;3.17;2.97;;;;;;;;;;5017098;28;20053;-53
2023/04/15 00:19:20;;;;;;;3.60;3.30;;;;;;;;;;5034744;28;20014;-53
2023/04/15 00:21:46;;;;;;;3.53;3.20;;;;;;;;;;5035133;28;20032;-53
2023/04/15 00:24:12;;;;;;;3.70;3.17;;;;;;;;;;5035409;28;20018;-53
2023/04/15 00:26:37;;;;;;;3.83;3.40;;;;;;;;;;5035013;28;20037;-52
2023/04/15 00:29:03;;;;;;;3.78;3.38;;;;;;;;;;5034839;28;20044;-52
2023/04/15 00:31:29;;;;;;;3.80;3.50;;;;;;;;;;5033180;28;20037;-53
2023/04/15 00:33:54;;;;;;;4.25;3.85;;;;;;;;;;5034555;28;20108;-53
2023/04/15 00:36:22;;;;;;;3.65;3.28;;;;;;;;;;5034320;28;20072;-53
2023/04/15 00:38:48;;;;;;;6.05;3.28;;;;;;;;;;5033855;28;20387;-53
2023/04/15 00:41:14;;;;;;;3.65;3.33;;;;;;;;;;5017399;28;20041;-53
2023/04/15 00:43:39;;;;;;;4.13;3.72;;;;;;;;;;5034528;28;20026;-53
2023/04/15 00:46:05;;;;;;;4.55;3.33;;;;;;;;;;5034937;28;20535;-53
2023/04/15 00:48:31;;;;;;;3.53;3.22;;;;;;;;;;5034417;28;20392;-53
2023/04/15 00:50:56;;;;;;;3.72;3.40;;;;;;;;;;5033483;28;20036;-53
2023/04/15 00:53:22;;;;;;;3.60;3.30;;;;;;;;;;5034835;28;20034;-53
2023/04/15 00:55:48;;;;;;;3.95;3.55;;;;;;;;;;5034591;28;20041;-53
2023/04/15 00:58:13;;;;;;;3.92;3.53;;;;;;;;;;5034744;28;20029;-53
2023/04/15 01:00:41;;;;;;;4.45;3.88;;;;;;;;;;5034221;28;20033;-53
2023/04/15 01:03:07;;;;;;;3.83;3.22;;;;;;;;;;5034749;28;20064;-53
2023/04/15 01:05:33;;;;;;;4.72;3.60;;;;;;;;;;5032857;28;20487;-53
2023/04/15 01:07:58;;;;;;;3.80;3.42;;;;;;;;;;5032530;28;20111;-53
2023/04/15 01:10:23;;;;;;;3.60;3.30;;;;;;;;;;5032740;28;20041;-53
2023/04/15 01:12:49;;;;;;;2.85;2.65;;;;;;;;;;5034261;28;20354;-53
2023/04/15 01:15:14;;;;;;;3.67;3.38;;;;;;;;;;5033939;28;20067;-53
2023/04/15 01:17:40;;;;;;;3.22;2.92;;;;;;;;;;5034000;28;20464;-53
2023/04/15 01:20:08;;;;;;;3.30;3.08;;;;;;;;;;5032923;28;20144;-53
2023/04/15 01:22:35;;;;;;;3.75;3.42;;;;;;;;;;5032981;28;20479;-53
2023/04/15 01:25:05;;;;;;;3.88;3.47;;;;;;;;;;5032679;28;20036;-52
2023/04/15 01:27:31;;;;;;;3.58;3.20;;;;;;;;;;5032839;28;20022;-52
2023/04/15 01:29:56;;;;;;;4.93;4.32;;;;;;;;;;5033863;28;20033;-52
2023/04/15 01:32:22;;;;;;;4.05;3.65;;;;;;;;;;5032321;28;20028;-52
2023/04/15 01:34:50;;;;;;;3.50;3.15;;;;;;;;;;5034194;28;20036;-52
2023/04/15 01:37:16;;;;;;;3.92;3.60;;;;;;;;;;5033579;28;20045;-52
2023/04/15 01:39:42;;;;;;;3.67;3.38;;;;;;;;;;5032812;28;20048;-52
2023/04/15 01:42:07;;;;;;;3.85;3.15;;;;;;;;;;5032848;28;20033;-52
2023/04/15 01:44:32;;;;;;;2.97;2.75;;;;;;;;;;5033762;28;20029;-52
2023/04/15 01:46:58;;;;;;;2.92;2.72;;;;;;;;;;5036579;28;20029;-52
2023/04/15 01:49:25;;;;;;;4.18;3.22;;;;;;;;;;5020486;28;20029;-52
2023/04/15 01:51:53;;;;;;;3.63;3.33;;;;;;;;;;5037875;28;20037;-52
2023/04/15 01:54:18;;;;;;;2.90;2.70;;;;;;;;;;5037897;28;20033;-52
2023/04/15 01:56:43;;;;;;;3.20;2.90;;;;;;;;;;5037791;28;20032;-53
2023/04/15 01:59:09;;;;;;;4.85;3.15;;;;;;;;;;5019672;28;20084;-59
2023/04/15 02:01:34;;;;;;;8.13;5.15;;;;;;;;;;5019823;28;20460;-59
2023/04/15 02:04:00;;;;;;;7.20;4.85;;;;;;;;;;5037312;28;20041;-59
2023/04/15 02:06:27;;;;;;;4.97;4.47;;;;;;;;;;5037291;28;20030;-59
2023/04/15 02:08:54;;;;;;;4.50;3.80;;;;;;;;;;5019463;28;20076;-59
2023/04/15 02:11:19;;;;;;;4.85;3.63;;;;;;;;;;5003282;28;20021;-58
2023/04/15 02:13:45;;;;;;;3.28;3.08;;;;;;;;;;5019841;28;20399;-58
2023/04/15 02:16:17;;;;;;;3.00;2.67;;;;;;;;;;5019418;28;20060;-58
2023/04/15 02:18:43;;;;;;;3.95;3.17;;;;;;;;;;5019675;28;20490;-59
2023/04/15 02:21:09;;;;;;;2.90;2.70;;;;;;;;;;5037452;28;20033;-59
2023/04/15 02:23:36;;;;;;;2.58;2.38;;;;;;;;;;5019211;28;20111;-58
2023/04/15 02:26:02;;;;;;;3.10;2.90;;;;;;;;;;5037368;28;20475;-58
2023/04/15 02:28:30;;;;;;;2.85;2.65;;;;;;;;;;5019040;28;20480;-59
2023/04/15 02:30:58;;;;;;;4.75;3.45;;;;;;;;;;5037258;28;20144;-59
2023/04/15 02:33:24;;;;;;;2.85;2.65;;;;;;;;;;5019397;28;20037;-59
2023/04/15 02:35:49;;;;;;;3.58;2.35;;;;;;;;;;5036635;28;20049;-59
2023/04/15 02:38:16;;;;;;;3.65;2.50;;;;;;;;;;5019399;28;20056;-59
2023/04/15 02:40:42;;;;;;;3.05;2.25;;;;;;;;;;5036727;28;20076;-59
2023/04/15 02:43:07;;;;;;;3.28;2.78;;;;;;;;;;5036872;28;20018;-59
2023/04/15 02:45:33;;;;;;;2.70;2.50;;;;;;;;;;5019031;28;20464;-59
2023/04/15 02:48:04;;;;;;;2.35;2.17;;;;;;;;;;5019258;28;20547;-59
2023/04/15 02:50:30;;;;;;;3.33;3.03;;;;;;;;;;5037497;28;20033;-59
2023/04/15 02:52:55;;;;;;;3.42;3.13;;;;;;;;;;5019250;28;20143;-58
2023/04/15 02:55:21;;;;;;;3.47;3.17;;;;;;;;;;5018649;28;20116;-58
2023/04/15 02:57:47;;;;;;;2.80;2.60;;;;;;;;;;5018496;28;20100;-59
2023/04/15 03:00:13;;;;;;;3.83;2.95;;;;;;;;;;5018552;28;20034;-59
2023/04/15 03:02:41;;;;;;;3.60;2.58;;;;;;;;;;5018660;28;20029;-59
2023/04/15 03:05:11;;;;;;;2.95;2.75;;;;;;;;;;5036452;28;20029;-59
2023/04/15 03:07:36;;;;;;;2.90;2.70;;;;;;;;;;5018339;28;20043;-59
2023/04/15 03:10:02;;;;;;;2.88;2.47;;;;;;;;;;5019238;28;20116;-58
2023/04/15 03:12:29;;;;;;;3.15;2.85;;;;;;;;;;5036081;28;20112;-59
2023/04/15 03:14:55;;;;;;;2.97;2.63;;;;;;;;;;5018759;28;20033;-59
2023/04/15 03:17:26;;;;;;;5.60;3.30;;;;;;;;;;5018111;28;20426;-59
2023/04/15 03:19:51;;;;;;;3.85;3.35;;;;;;;;;;5035901;28;20033;-59
2023/04/15 03:22:17;;;;;;;3.65;3.00;;;;;;;;;;5018416;28;20033;-59
2023/04/15 03:24:42;;;;;;;3.97;3.03;;;;;;;;;;5018152;28;20030;-59
2023/04/15 03:27:08;;;;;;;2.95;2.75;;;;;;;;;;5002559;28;20120;-59
2023/04/15 03:29:34;;;;;;;2.58;2.38;;;;;;;;;;5018103;28;20403;-58
2023/04/15 03:32:00;;;;;;;2.97;2.40;;;;;;;;;;5036279;28;20033;-59
2023/04/15 03:34:25;;;;;;;3.30;2.60;;;;;;;;;;5018987;28;20045;-59
2023/04/15 03:36:51;;;;;;;2.60;2.42;;;;;;;;;;5017661;28;20045;-59
2023/04/15 03:39:16;;;;;;;3.70;3.05;;;;;;;;;;5018461;28;20356;-59
2023/04/15 03:41:41;;;;;;;2.65;2.45;;;;;;;;;;5035742;28;20026;-59
2023/04/15 03:44:07;;;;;;;3.30;3.10;;;;;;;;;;5035461;28;20464;-59
2023/04/15 03:46:32;;;;;;;2.40;2.20;;;;;;;;;;5001377;28;20022;-58
2023/04/15 03:48:57;;;;;;;3.00;2.70;;;;;;;;;;5035806;28;20494;-59
2023/04/15 03:51:23;;;;;;;7.15;4.82;;;;;;;;;;5035412;28;20033;-58
2023/04/15 03:53:48;;;;;;;10.00;5.75;;;;;;;;;;5035594;28;20511;-58
2023/04/15 03:56:13;;;;;;;12.43;6.55;;;;;;;;;;5035145;28;20030;-58
2023/04/15 03:58:39;;;;;;;9.85;6.20;;;;;;;;;;5035262;28;20057;-58
2023/04/15 04:01:07;;;;;;;8.35;5.70;;;;;;;;;;5034902;28;20450;-60
2023/04/15 04:03:32;;;;;;;6.35;5.28;;;;;;;;;;5034871;28;20037;-58
2023/04/15 04:05:58;;;;;;;7.07;5.47;;;;;;;;;;5035120;28;20013;-58
2023/04/15 04:08:23;;;;;;;7.93;7.20;;;;;;;;;;5035448;28;20422;-58
2023/04/15 04:10:48;;;;;;;5.57;4.85;;;;;;;;;;5033813;28;20389;-58
2023/04/15 04:13:14;;;;;;;9.95;5.75;;;;;;;;;;5035482;28;20534;-61
2023/04/15 04:15:40;;;;;;;5.22;3.95;;;;;;;;;;5035454;28;20037;-59
2023/04/15 04:18:05;;;;;;;14.93;13.43;;;;;;;;;;5035196;28;20034;-59
2023/04/15 04:20:31;;;;;;;15.73;13.20;;;;;;;;;;5035271;28;20025;-59
2023/04/15 04:22:56;;;;;;;11.48;8.30;;;;;;;;;;5035518;28;20341;-59
2023/04/15 04:25:21;;;;;;;6.40;5.15;;;;;;;;;;5034912;28;20060;-59
2023/04/15 04:27:47;;;;;;;4.50;4.10;;;;;;;;;;5035359;28;20029;-59
2023/04/15 04:30:12;;;;;;;5.20;4.72;;;;;;;;;;5034642;28;20033;-59
2023/04/15 04:32:37;;;;;;;6.82;4.43;;;;;;;;;;5034659;28;20029;-59
2023/04/15 04:35:05;;;;;;;4.53;4.10;;;;;;;;;;5034491;28;20029;-59
2023/04/15 04:37:31;;;;;;;4.30;3.90;;;;;;;;;;5034550;28;20061;-59
2023/04/15 04:40:00;;;;;;;4.72;4.32;;;;;;;;;;5016633;28;20017;-59
2023/04/15 04:42:25;;;;;;;4.80;4.30;;;;;;;;;;5034425;28;20022;-59
2023/04/15 04:44:51;;;;;;;7.20;6.20;;;;;;;;;;5034792;28;20144;-59
2023/04/15 04:47:17;;;;;;;9.10;7.30;;;;;;;;;;5016737;28;20099;-59
2023/04/15 04:49:42;;;;;;;8.10;6.63;;;;;;;;;;5034246;28;20026;-59
2023/04/15 04:52:07;;;;;;;7.05;6.03;;;;;;;;;;5034322;28;20029;-59
2023/04/15 04:54:33;;;;;;;6.82;6.15;;;;;;;;;;5034090;28;20033;-59
2023/04/15 04:56:58;;;;;;;10.40;6.07;;;;;;;;;;5034301;28;20075;-59
2023/04/15 04:59:24;;;;;;;6.80;6.03;;;;;;;;;;5034334;28;20025;-59
2023/04/15 05:01:50;;;;;;;5.68;5.18;;;;;;;;;;5032119;28;20013;-59
2023/04/15 05:04:15;;;;;;;6.70;5.60;;;;;;;;;;5034012;28;20037;-60
2023/04/15 05:06:40;;;;;;;5.70;5.20;;;;;;;;;;5034130;28;20026;-59
2023/04/15 05:09:06;;;;;;;5.30;4.80;;;;;;;;;;5034312;28;20057;-53
2023/04/15 05:11:31;;;;;;;5.50;4.70;;;;;;;;;;5033664;28;20076;-59
2023/04/15 05:13:58;;;;;;;4.78;4.38;;;;;;;;;;5034601;28;20021;-59
2023/04/15 05:16:24;;;;;;;3.80;3.50;;;;;;;;;;5033558;23;20457;-59
2023/04/15 05:18:50;;;;;;;4.57;3.97;;;;;;;;;;5014088;28;20157;-59
2023/04/15 05:21:15;;;;;;;4.68;4.20;;;;;;;;;;5011152;28;20133;-58
2023/04/15 05:23:40;;;;;;;4.03;3.70;;;;;;;;;;5012317;28;20046;-52
2023/04/15 05:26:05;;;;;;;4.60;4.20;;;;;;;;;;5012380;28;20014;-59
2023/04/15 05:28:31;;;;;;;5.68;4.40;;;;;;;;;;5012377;28;20030;-59
2023/04/15 05:31:02;;;;;;;6.85;4.38;;;;;;;;;;5010916;28;20037;-52
2023/04/15 05:33:27;;;;;;;4.40;4.00;;;;;;;;;;5010814;28;20084;-52
2023/04/15 05:35:53;;;;;;;3.90;3.60;;;;;;;;;;5010735;28;20038;-52
2023/04/15 05:38:19;;;;;;;3.72;3.40;;;;;;;;;;5010634;28;20125;-59
2023/04/15 05:40:45;;;;;;;3.55;3.30;;;;;;;;;;5010240;28;20102;-59
2023/04/15 05:43:10;;;;;;;4.13;3.17;;;;;;;;;;5010970;28;20464;-59
2023/04/15 05:45:35;;;;;;;3.30;2.90;;;;;;;;;;5010581;28;20042;-59
2023/04/15 05:48:01;;;;;;;3.17;2.97;;;;;;;;;;5010743;28;20041;-59
2023/04/15 05:50:27;;;;;;;3.30;3.10;;;;;;;;;;4993219;28;20436;-59
2023/04/15 05:52:52;;;;;;;3.60;3.28;;;;;;;;;;5011966;28;20259;-59
2023/04/15 05:55:18;;;;;;;3.72;3.35;;;;;;;;;;5012299;28;20041;-59
2023/04/15 05:57:43;;;;;;;3.67;3.38;;;;;;;;;;5012642;28;20116;-59
2023/04/15 06:00:09;;;;;;;4.28;3.80;;;;;;;;;;5012265;28;20030;-59
2023/04/15 06:02:37;;;;;;;6.03;3.65;;;;;;;;;;5012316;28;20041;-59
2023/04/15 06:05:02;;;;;;;5.32;4.13;;;;;;;;;;5012693;28;20526;-59
2023/04/15 06:07:28;;;;;;;4.35;3.92;;;;;;;;;;5012270;28;20053;-59
2023/04/15 06:09:53;;;;;;;4.22;3.83;;;;;;;;;;5012603;28;20096;-59
2023/04/15 06:12:18;;;;;;;4.30;3.90;;;;;;;;;;4994388;28;20046;-59
2023/04/15 06:14:43;;;;;;;5.85;4.10;;;;;;;;;;5012443;28;20108;-59
2023/04/15 06:17:09;;;;;;;7.55;4.15;;;;;;;;;;5011783;28;20083;-59
2023/04/15 06:19:35;;;;;;;6.03;3.85;;;;;;;;;;5012389;28;20052;-59
2023/04/15 06:22:01;;;;;;;3.80;3.33;;;;;;;;;;4994442;28;20127;-52
2023/04/15 06:24:27;;;;;;;3.22;2.92;;;;;;;;;;5012385;28;20026;-59
2023/04/15 06:26:52;;;;;;;4.05;3.30;;;;;;;;;;5011685;28;20105;-52
2023/04/15 06:29:17;;;;;;;3.00;2.72;;;;;;;;;;5011892;28;20034;-59
2023/04/15 06:31:42;;;;;;;2.85;2.65;;;;;;;;;;4995017;28;20026;-59
2023/04/15 06:34:08;;;;;;;4.05;2.80;;;;;;;;;;5015818;28;20042;-59
2023/04/15 06:36:34;;;;;;;4.47;2.65;;;;;;;;;;4998428;28;20118;-59
2023/04/15 06:39:00;;;;;;;3.13;2.78;;;;;;;;;;5015275;28;20022;-59
2023/04/15 06:41:25;;;;;;;4.00;3.00;;;;;;;;;;5015860;28;20056;-59
2023/04/15 06:43:51;;;;;;;2.90;2.70;;;;;;;;;;5015724;28;20037;-59
2023/04/15 06:46:16;;;;;;;3.53;2.50;;;;;;;;;;5015456;28;20068;-59
2023/04/15 06:48:41;;;;;;;3.03;2.42;;;;;;;;;;5015466;28;20018;-59
2023/04/15 06:51:07;;;;;;;9.32;4.40;;;;;;;;;;5015550;28;20453;-59
2023/04/15 06:53:32;;;;;;;11.00;8.00;;;;;;;;;;5014977;28;20034;-60
2023/04/15 06:55:57;;;;;;;7.63;4.93;;;;;;;;;;5015200;28;20365;-58
2023/04/15 06:58:23;;;;;;;11.27;8.23;;;;;;;;;;5015229;28;20034;-59
2023/04/15 07:00:48;;;;;;;11.00;6.22;;;;;;;;;;5015049;28;20079;-59
2023/04/15 07:03:16;;;;;;;6.60;4.80;;;;;;;;;;5015221;28;20113;-59
2023/04/15 07:05:42;;;;;;;5.05;3.38;;;;;;;;;;4997384;28;20123;-59
2023/04/15 07:08:07;;;;;;;7.82;5.93;;;;;;;;;;5014697;28;20059;-59
2023/04/15 07:10:33;;;;;;;5.15;3.30;;;;;;;;;;5013898;28;20037;-52
2023/04/15 07:12:58;;;;;;;9.05;4.88;;;;;;;;;;5033316;28;20127;-52
2023/04/15 07:15:24;;;;;;;3.03;2.72;;;;;;;;;;5017830;28;20034;-52
2023/04/15 07:17:49;;;;;;;12.38;7.90;;;;;;;;;;5035276;28;20099;-52
2023/04/15 07:20:14;;;;;;;6.07;5.00;;;;;;;;;;5035533;28;20037;-59
2023/04/15 07:22:40;;;;;;;6.60;5.43;;;;;;;;;;5034759;28;20109;-59
2023/04/15 07:25:06;;;;;;;2.78;2.42;;;;;;;;;;5016929;28;20379;-52
2023/04/15 07:27:31;;;;;;;3.53;2.00;;;;;;;;;;5031322;28;20037;-52
2023/04/15 07:29:57;;;;;;;2.30;2.10;;;;;;;;;;5015416;28;20033;-52
2023/04/15 07:32:22;;;;;;;3.35;2.47;;;;;;;;;;5014915;28;20448;-52
2023/04/15 07:34:47;;;;;;;3.42;3.10;;;;;;;;;;4997725;28;20092;-52
2023/04/15 07:37:13;;;;;;;3.83;3.30;;;;;;;;;;4998508;28;20076;-60
2023/04/15 07:39:39;;;;;;;4.57;3.40;;;;;;;;;;5015805;28;20030;-59
2023/04/15 07:42:04;;;;;;;3.17;2.50;;;;;;;;;;5015574;28;20029;-59
2023/04/15 07:44:30;;;;;;;3.72;2.28;;;;;;;;;;5015702;28;20038;-59
2023/04/15 07:46:55;;;;;;;12.15;8.10;;;;;;;;;;5015970;28;20067;-59
2023/04/15 07:49:21;;;;;;;4.05;3.42;;;;;;;;;;5015637;28;20030;-59
2023/04/15 07:51:47;;;;;;;4.20;3.30;;;;;;;;;;4998008;28;20034;-59
2023/04/15 07:54:12;;;;;;;5.10;3.95;;;;;;;;;;5015672;28;20030;-59
2023/04/15 07:56:38;;;;;;;3.28;2.70;;;;;;;;;;5015680;28;20040;-61
2023/04/15 07:59:05;;;;;;;2.63;2.42;;;;;;;;;;5015513;28;20033;-61
2023/04/15 08:01:30;;;;;;;8.02;6.85;;;;;;;;;;5015728;28;20029;-60
2023/04/15 08:03:55;;;;;;;9.48;7.15;;;;;;;;;;5018354;28;20116;-61
2023/04/15 08:06:22;;;;;;;15.20;10.73;;;;;;;;;;5033328;28;20032;-60
2023/04/15 08:08:47;;;;;;;2.60;2.40;;;;;;;;;;5035121;28;20112;-61
2023/04/15 08:11:13;;;;;;;1.75;1.65;;;;;;;;;;5033052;28;20512;-61
2023/04/15 08:13:38;;;;;;;1.77;1.67;;;;;;;;;;5035112;28;20025;-61
2023/04/15 08:16:15;;;;;;;2.08;1.58;;;;;;;;;;5017322;28;20042;-60
2023/04/15 08:18:41;;;;;;;1.60;1.50;;;;;;;;;;5033448;28;20041;-61
2023/04/15 08:21:06;;;;;;;1.92;1.83;;;;;;;;;;5034214;28;20026;-61
2023/04/15 08:23:32;;;;;;;1.60;1.50;;;;;;;;;;5016493;28;20426;-54
2023/04/15 08:25:57;;;;;;;2.38;1.70;;;;;;;;;;5034118;28;20075;-53
2023/04/15 08:28:23;;;;;;;2.53;2.05;;;;;;;;;;5033984;28;20025;-53
2023/04/15 08:30:48;;;;;;;1.95;1.85;;;;;;;;;;5033443;28;20168;-53
2023/04/15 08:33:13;;;;;;;2.20;1.92;;;;;;;;;;5033921;28;20022;-53
2023/04/15 08:35:39;;;;;;;2.20;2.00;;;;;;;;;;5034066;28;20044;-53
2023/04/15 08:38:04;;;;;;;2.00;1.90;;;;;;;;;;5033924;28;20560;-53
2023/04/15 08:40:34;;;;;;;2.50;1.90;;;;;;;;;;5033718;28;20083;-53
2023/04/15 08:43:01;;;;;;;2.05;1.95;;;;;;;;;;5033631;28;20413;-53
2023/04/15 08:45:27;;;;;;;2.00;1.90;;;;;;;;;;5016237;28;20052;-53
2023/04/15 08:47:54;;;;;;;2.15;1.95;;;;;;;;;;5033906;28;20477;-53
2023/04/15 08:50:19;;;;;;;2.72;2.22;;;;;;;;;;5016098;28;20039;-54
2023/04/15 08:52:45;;;;;;;2.55;2.08;;;;;;;;;;5033883;28;20025;-53
2023/04/15 08:55:10;;;;;;;3.75;1.90;;;;;;;;;;5015634;28;20045;-53
2023/04/15 08:57:36;;;;;;;2.22;2.03;;;;;;;;;;5033759;28;20055;-53
2023/04/15 09:00:02;;;;;;;2.47;2.28;;;;;;;;;;5033773;28;20014;-53
2023/04/15 09:02:28;;;;;;;3.92;2.78;;;;;;;;;;5033582;28;20033;-53
2023/04/15 09:04:53;;;;;;;3.13;2.92;;;;;;;;;;5022880;28;20026;-53
2023/04/15 09:07:19;;;;;;;3.45;2.75;;;;;;;;;;5013684;28;20116;-53
2023/04/15 09:09:44;;;;;;;2.70;2.47;;;;;;;;;;5013683;28;20518;-53
2023/04/15 09:12:10;;;;;;;3.72;3.20;;;;;;;;;;5013441;28;20030;-53
2023/04/15 09:14:38;;;;;;;3.83;3.53;;;;;;;;;;5013832;28;20167;-53
2023/04/15 09:17:03;;;;;;;5.75;5.13;;;;;;;;;;5013443;28;20049;-53
2023/04/15 09:19:29;;;;;;;3.75;3.30;;;;;;;;;;5013499;28;20040;-53
2023/04/15 09:21:56;;;;;;;4.00;3.33;;;;;;;;;;5013720;28;20024;-53
2023/04/15 09:24:22;;;;;;;4.20;3.80;;;;;;;;;;5013084;28;20491;-53
2023/04/15 09:26:50;;;;;;;3.40;2.35;;;;;;;;;;4995983;28;20034;-61
2023/04/15 09:29:17;;;;;;;3.60;3.28;;;;;;;;;;5013476;28;20092;-60
2023/04/15 09:31:42;;;;;;;3.80;2.92;;;;;;;;;;4995912;28;20034;-60
2023/04/15 09:34:08;;;;;;;2.30;2.10;;;;;;;;;;5013495;28;20550;-60
2023/04/15 09:36:45;;;;;;;2.72;1.88;;;;;;;;;;4995851;28;20034;-60
2023/04/15 09:39:11;;;;;;;2.63;1.55;;;;;;;;;;5013473;28;20415;-60
2023/04/15 09:41:36;;;;;;;3.10;1.67;;;;;;;;;;4995309;28;20026;-60
2023/04/15 09:44:03;;;;;;;2.65;1.75;;;;;;;;;;5013517;28;20041;-60
2023/04/15 09:46:41;;;;;;;1.60;1.48;;;;;;;;;;4979451;28;20042;-60
2023/04/15 09:49:08;;;;;;;1.90;1.58;;;;;;;;;;5013212;28;20037;-60
2023/04/15 09:51:36;;;;;;;2.10;1.90;;;;;;;;;;5013394;28;20165;-60
2023/04/15 09:54:02;;;;;;;3.05;1.80;;;;;;;;;;5012794;28;20113;-60
2023/04/15 09:56:35;;;;;;;2.97;1.85;;;;;;;;;;5013004;28;20112;-60
2023/04/15 09:59:00;;;;;;;2.03;1.77;;;;;;;;;;5012753;28;20081;-60
2023/04/15 10:01:25;;;;;;;3.15;2.42;;;;;;;;;;5012567;28;20077;-60
2023/04/15 10:03:51;;;;;;;7.40;2.50;;;;;;;;;;5014710;28;20025;-60
2023/04/15 10:06:17;;;;;;;2.22;2.03;;;;;;;;;;5032677;28;20018;-60
2023/04/15 10:08:42;;;;;;;2.88;2.30;;;;;;;;;;5035985;28;20112;-60
2023/04/15 10:11:07;;;;;;;3.95;3.47;;;;;;;;;;5035887;28;20053;-60
2023/04/15 10:13:35;;;;;;;4.35;3.92;;;;;;;;;;5035363;28;20456;-61
2023/04/15 10:16:10;;;;;;;99.32;48.30;;;;;;;;;;5034931;28;20041;-60
2023/04/15 10:18:45;;;;;;;11.15;7.18;;;;;;;;;;5035812;28;20041;-60
2023/04/15 10:21:17;;;;;;;8.25;4.60;;;;;;;;;;5035995;28;20029;-60
2023/04/15 10:23:44;;;;;;;2.47;2.15;;;;;;;;;;5035940;28;20021;-60
2023/04/15 10:26:11;;;;;;;2.03;1.80;;;;;;;;;;5035967;28;20387;-60
2023/04/15 10:28:37;;;;;;;5.20;3.50;;;;;;;;;;5036049;28;20060;-60
2023/04/15 10:31:03;;;;;;;7.15;6.05;;;;;;;;;;5036366;28;20025;-60
2023/04/15 10:33:29;;;;;;;4.60;3.08;;;;;;;;;;5034507;28;20034;-60
2023/04/15 10:35:55;;;;;;;1.67;1.55;;;;;;;;;;5035575;28;20409;-60
2023/04/15 10:38:42;;;;;;;2.25;1.75;;;;;;;;;;5035597;28;20492;-60
2023/04/15 10:41:12;;;;;;;2.13;1.92;;;;;;;;;;5035592;28;20558;-60
2023/04/15 10:43:37;;;;;;;1.70;1.60;;;;;;;;;;5036849;28;20022;-60
2023/04/15 10:46:04;;;;;;;2.03;1.85;;;;;;;;;;5036145;28;20038;-60
2023/04/15 10:48:30;;;;;;;6.32;1.90;;;;;;;;;;5034980;28;20421;-60
2023/04/15 10:50:56;;;;;;;1.85;1.75;;;;;;;;;;5035741;28;20124;-53
2023/04/15 10:53:28;;;;;;;1.50;1.40;;;;;;;;;;5035529;28;20109;-60
2023/04/15 10:55:53;;;;;;;2.25;1.30;;;;;;;;;;5035349;28;20040;-61
2023/04/15 10:58:22;;;;;;;2.25;1.30;;;;;;;;;;5035421;28;20026;-60
2023/04/15 11:00:52;;;;;;;1.58;1.48;;;;;;;;;;5018707;28;20041;-60
2023/04/15 11:03:35;;;;;;;1.75;1.15;;;;;;;;;;5035999;28;20018;-60
2023/04/15 11:06:01;;;;;;;2.28;0.95;;;;;;;;;;5035979;28;20040;-60
2023/04/15 11:09:04;;;;;;;0.80;0.80;;;;;;;;;;5035589;28;20025;-60
2023/04/15 11:11:48;;;;;;;1.92;1.50;;;;;;;;;;4993997;28;20037;-61
2023/04/15 11:14:14;;;;;;;1.25;0.93;;;;;;;;;;5035379;28;20521;-60
2023/04/15 11:16:43;;;;;;;2.35;1.25;;;;;;;;;;5035006;28;20049;-60
2023/04/15 11:19:09;;;;;;;1.30;1.20;;;;;;;;;;5034812;28;20044;-60
2023/04/15 11:21:36;;;;;;;2.00;1.33;;;;;;;;;;5036121;28;20037;-60
2023/04/15 11:24:02;;;;;;;1.05;1.00;;;;;;;;;;5035860;28;20123;-60
2023/04/15 11:26:28;;;;;;;2.72;2.45;;;;;;;;;;5035907;28;20021;-60
2023/04/15 11:28:53;;;;;;;1.52;1.40;;;;;;;;;;5036018;28;20152;-60
2023/04/15 11:31:18;;;;;;;1.77;1.30;;;;;;;;;;5036313;28;20037;-60
2023/04/15 11:34:04;;;;;;;1.35;1.25;;;;;;;;;;5036135;28;20041;-60
2023/04/15 11:36:30;;;;;;;0.93;0.93;;;;;;;;;;5035684;28;20055;-60
2023/04/15 11:38:57;;;;;;;2.05;1.02;;;;;;;;;;5035796;28;20033;-60
2023/04/15 11:41:22;;;;;;;0.82;0.82;;;;;;;;;;5035844;28;20024;-60
2023/04/15 11:43:49;;;;;;;1.38;1.13;;;;;;;;;;5035866;28;20029;-60
2023/04/15 11:46:14;;;;;;;0.70;0.70;;;;;;;;;;5035773;28;20060;-60
2023/04/15 11:48:41;;;;;;;2.35;2.17;;;;;;;;;;5035381;28;20129;-60
2023/04/15 11:51:07;;;;;;;0.90;0.90;;;;;;;;;;5035764;28;20075;-60
2023/04/15 11:53:51;;;;;;;1.00;1.00;;;;;;;;;;5035255;28;20100;-60
2023/04/15 11:56:17;;;;;;;1.00;0.80;;;;;;;;;;5035875;28;20078;-60
2023/04/15 11:58:45;;;;;;;2.42;1.17;;;;;;;;;;5017831;28;20017;-61
2023/04/15 12:01:10;;;;;;;0.88;0.88;;;;;;;;;;5034371;28;20033;-60
2023/04/15 12:03:36;;;;;;;1.40;1.30;;;;;;;;;;5034290;28;20037;-60
2023/04/15 12:06:07;;;;;;;2.70;2.50;;;;;;;;;;5014897;28;20029;-60
2023/04/15 12:08:47;;;;;;;1.38;1.27;;;;;;;;;;5014829;28;20102;-60
2023/04/15 12:11:14;;;;;;;1.40;1.27;;;;;;;;;;5014498;28;20080;-60
2023/04/15 12:13:43;;;;;;;1.35;1.30;;;;;;;;;;5014321;28;20392;-60
2023/04/15 12:16:08;;;;;;;1.38;1.20;;;;;;;;;;5014140;28;20046;-60
2023/04/15 12:18:36;;;;;;;1.17;1.10;;;;;;;;;;5014230;28;20482;-60
2023/04/15 12:21:08;;;;;;;3.05;2.13;;;;;;;;;;4997088;28;20365;-60
2023/04/15 12:23:36;;;;;;;1.60;1.50;;;;;;;;;;4997293;28;20032;-60
2023/04/15 12:26:03;;;;;;;2.88;2.67;;;;;;;;;;5014284;28;20034;-53
2023/04/15 12:28:29;;;;;;;3.15;2.38;;;;;;;;;;5014621;28;20399;-53
2023/04/15 12:30:56;;;;;;;2.03;1.92;;;;;;;;;;5013444;28;20038;-53
2023/04/15 12:33:21;;;;;;;6.57;5.75;;;;;;;;;;5014542;28;20049;-53
2023/04/15 12:35:47;;;;;;;14.52;10.43;;;;;;;;;;5014488;28;20065;-53
2023/04/15 12:38:12;;;;;;;10.90;9.75;;;;;;;;;;5014204;28;20124;-53
2023/04/15 12:40:38;;;;;;;3.97;3.65;;;;;;;;;;5013808;28;20030;-53
2023/04/15 12:43:03;;;;;;;4.22;3.92;;;;;;;;;;5014212;28;20025;-53
2023/04/15 12:45:28;;;;;;;6.97;4.82;;;;;;;;;;4995971;28;20124;-53
2023/04/15 12:47:53;;;;;;;13.70;9.18;;;;;;;;;;5013878;28;20088;-53
2023/04/15 12:50:19;;;;;;;15.23;9.25;;;;;;;;;;5014166;28;20445;-53
2023/04/15 12:52:44;;;;;;;4.32;3.60;;;;;;;;;;4996422;28;20034;-53
2023/04/15 12:55:11;;;;;;;2.47;2.28;;;;;;;;;;4996540;28;20036;-53
2023/04/15 12:57:36;;;;;;;3.40;2.70;;;;;;;;;;5013995;28;20088;-53
2023/04/15 13:00:01;;;;;;;12.68;8.35;;;;;;;;;;5013889;28;20440;-60
2023/04/15 13:02:27;;;;;;;3.80;3.40;;;;;;;;;;5013826;28;20476;-60
2023/04/15 13:04:54;;;;;;;5.05;3.47;;;;;;;;;;5023048;28;20033;-61
2023/04/15 13:07:19;;;;;;;7.10;4.72;;;;;;;;;;4995632;28;20499;-60
2023/04/15 13:09:45;;;;;;;11.25;4.82;;;;;;;;;;5013743;28;20044;-61
2023/04/15 13:12:12;;;;;;;12.85;4.95;;;;;;;;;;5013722;28;20030;-61
2023/04/15 13:14:37;;;;;;;8.85;4.70;;;;;;;;;;5013669;28;20017;-61
2023/04/15 13:17:07;;;;;;;15.35;9.15;;;;;;;;;;5013279;28;20124;-61
2023/04/15 13:19:35;;;;;;;12.95;7.60;;;;;;;;;;5012993;28;20076;-61
2023/04/15 13:22:00;;;;;;;5.35;4.40;;;;;;;;;;5013024;28;20080;-61
2023/04/15 13:24:26;;;;;;;37.33;20.92;;;;;;;;;;5024375;28;20053;-61
2023/04/15 13:26:52;;;;;;;24.17;12.98;;;;;;;;;;5033934;28;20064;-61
2023/04/15 13:29:17;;;;;;;21.52;11.20;;;;;;;;;;5015502;28;20058;-61
2023/04/15 13:31:44;;;;;;;26.58;12.85;;;;;;;;;;5013858;28;20040;-53
2023/04/15 13:34:10;;;;;;;17.98;9.18;;;;;;;;;;5014109;28;20108;-53
2023/04/15 13:36:35;;;;;;;3.72;3.00;;;;;;;;;;5014242;28;20029;-53
2023/04/15 13:39:00;;;;;;;1.70;1.60;;;;;;;;;;5013924;28;20109;-54
2023/04/15 13:41:26;;;;;;;6.63;4.50;;;;;;;;;;5032478;28;20064;-53
2023/04/15 13:43:51;;;;;;;2.53;2.22;;;;;;;;;;5040275;28;20021;-53
2023/04/15 13:46:16;;;;;;;12.35;11.05;;;;;;;;;;5022285;28;20094;-53
2023/04/15 13:48:42;;;;;;;6.55;5.93;;;;;;;;;;5040712;28;20495;-53
2023/04/15 13:51:07;;;;;;;1.15;1.10;;;;;;;;;;5040107;28;20483;-53
2023/04/15 13:53:33;;;;;;;15.07;8.40;;;;;;;;;;5040484;28;20064;-53
2023/04/15 13:55:58;;;;;;;8.23;6.15;;;;;;;;;;5040453;28;20038;-54
2023/04/15 13:58:23;;;;;;;6.72;6.03;;;;;;;;;;5040293;28;20020;-53
2023/04/15 14:00:49;;;;;;;2.03;1.92;;;;;;;;;;5022689;28;20496;-53
2023/04/15 14:03:15;;;;;;;2.15;1.95;;;;;;;;;;5040418;28;20021;-53
2023/04/15 14:05:40;;;;;;;8.05;5.47;;;;;;;;;;5039928;28;20025;-54
2023/04/15 14:08:05;;;;;;;12.27;6.53;;;;;;;;;;5040118;28;20080;-53
2023/04/15 14:10:31;;;;;;;5.55;4.53;;;;;;;;;;5040231;28;20018;-53
2023/04/15 14:12:56;;;;;;;9.00;5.55;;;;;;;;;;4994305;28;20037;-54
2023/04/15 14:15:22;;;;;;;4.53;4.10;;;;;;;;;;5019100;28;20030;-53
2023/04/15 14:17:48;;;;;;;3.85;3.60;;;;;;;;;;5019627;28;20108;-53
2023/04/15 14:20:13;;;;;;;9.55;6.00;;;;;;;;;;5019536;28;20468;-53
2023/04/15 14:22:38;;;;;;;4.30;3.45;;;;;;;;;;5019768;28;20113;-53
2023/04/15 14:25:05;;;;;;;6.80;4.95;;;;;;;;;;5019490;28;20406;-53
2023/04/15 14:27:30;;;;;;;12.20;7.68;;;;;;;;;;5019213;28;20059;-53
2023/04/15 14:29:57;;;;;;;3.70;3.38;;;;;;;;;;5001447;28;20051;-53
2023/04/15 14:32:24;;;;;;;13.70;9.88;;;;;;;;;;5018980;28;20398;-53
2023/04/15 14:34:49;;;;;;;4.20;3.90;;;;;;;;;;5001242;28;20053;-53
2023/04/15 14:37:15;;;;;;;3.80;3.50;;;;;;;;;;5017812;28;20476;-53